Terminal Aerodrome Forecast
Issued by NWS

Home | Current Version | Previous Version | Text Only | Print | Product List | Glossary On
Versions: 1 2 3 4 5 6 7 8 9 10 11 12
000
FTUS46 KPDT 181100
TAFALW
TAF
KALW 181139Z 1812/1912 19010KT P6SM FEW150 FEW200
     FM181500 VRB05KT P6SM FEW120 FEW150
     FM181900 23014G24KT P6SM SCT090 BKN120
     FM190400 20010KT P6SM BKN070 BKN090=

USA.gov is the U.S. government's official web portal to all federal, state and local government web resources and services.